BCS7837 LGAV-EDDP
Flight info
| Callsign | BCS7837 |
|---|---|
| Flight time | 2h 35m |
| Altitude | 34000 |
| Route | KOR UL613 XANIS DCT DIMIS DCT PETAK DCT TEBLI DCT OBUTI DCT PISAM DCT ODLIV DCT BEFRE DCT IVQOQ/N0438F300 T951 YAWOY YAWOY1V |
| Aircraft | B763/H-SDE3FGHIM3RWXY/LB1 |
Departure
| Time | 2026-05-04 13:50 |
|---|---|
| Airport | Athens Eleftherios Venizelos International Airport (LGAV) |
Arrival
| Time | 2026-05-04 16:26 |
|---|---|
| Airport | Leipzig/Halle Airport (EDDP) |
| Time | Latitude | Longitude | Altitude | Speed | Heading |
|---|---|---|---|---|---|
| 2026-05-04 13:28 | 37.92403 | 23.93788 | 274 ft | 0 kts | 307° |
| 2026-05-04 13:39 | 37.92400 | 23.93794 | 274 ft | 1 kts | 308° |
| 2026-05-04 13:40 | 37.92390 | 23.93808 | 274 ft | 2 kts | 307° |
| 2026-05-04 13:40 | 37.92381 | 23.93824 | 274 ft | 2 kts | 307° |
| 2026-05-04 13:40 | 37.92372 | 23.93839 | 275 ft | 2 kts | 315° |
| 2026-05-04 13:40 | 37.92361 | 23.93850 | 275 ft | 2 kts | 330° |
| 2026-05-04 13:41 | 37.92347 | 23.93858 | 275 ft | 2 kts | 343° |
| 2026-05-04 13:41 | 37.92333 | 23.93862 | 275 ft | 2 kts | 357° |
| 2026-05-04 13:41 | 37.92318 | 23.93861 | 274 ft | 2 kts | 11° |
| 2026-05-04 13:42 | 37.92293 | 23.93848 | 274 ft | 0 kts | 37° |
| 2026-05-04 13:42 | 37.92291 | 23.93846 | 274 ft | 0 kts | 38° |
| 2026-05-04 13:47 | 37.92294 | 23.93849 | 274 ft | 2 kts | 38° |
| 2026-05-04 13:47 | 37.92319 | 23.93873 | 274 ft | 6 kts | 37° |
| 2026-05-04 13:47 | 37.92366 | 23.93917 | 275 ft | 10 kts | 37° |
| 2026-05-04 13:48 | 37.92433 | 23.93981 | 276 ft | 13 kts | 37° |
| 2026-05-04 13:48 | 37.92481 | 23.94073 | 278 ft | 13 kts | 82° |
| 2026-05-04 13:48 | 37.92444 | 23.94159 | 279 ft | 9 kts | 127° |
| 2026-05-04 13:48 | 37.92411 | 23.94240 | 278 ft | 9 kts | 94° |
| 2026-05-04 13:49 | 37.92406 | 23.94338 | 277 ft | 11 kts | 93° |
| 2026-05-04 13:49 | 37.92424 | 23.94392 | 277 ft | 2 kts | 34° |
| 2026-05-04 13:49 | 37.92455 | 23.94421 | 277 ft | 8 kts | 37° |
| 2026-05-04 13:49 | 37.92599 | 23.94556 | 279 ft | 53 kts | 37° |
| 2026-05-04 13:50 | 37.93064 | 23.94999 | 280 ft | 113 kts | 38° |
| 2026-05-04 13:50 | 37.93842 | 23.95741 | 272 ft | 165 kts | 37° |
| 2026-05-04 13:50 | 37.94810 | 23.96690 | 603 ft | 189 kts | 38° |
| 2026-05-04 13:50 | 37.95888 | 23.97718 | 1181 ft | 203 kts | 37° |
| 2026-05-04 13:51 | 37.97059 | 23.98839 | 1689 ft | 217 kts | 36° |
| 2026-05-04 13:51 | 37.98323 | 24.00049 | 2118 ft | 236 kts | 35° |
| 2026-05-04 13:51 | 37.99634 | 24.01306 | 2858 ft | 240 kts | 35° |
| 2026-05-04 13:51 | 38.00957 | 24.02576 | 3670 ft | 242 kts | 34° |
| 2026-05-04 13:52 | 38.03674 | 24.05173 | 5163 ft | 250 kts | 30° |
| 2026-05-04 13:52 | 38.05287 | 24.05993 | 5602 ft | 260 kts | 2° |
| 2026-05-04 13:52 | 38.07048 | 24.05627 | 6401 ft | 258 kts | 332° |
| 2026-05-04 13:53 | 38.08402 | 24.04204 | 7157 ft | 262 kts | 305° |
| 2026-05-04 13:53 | 38.09046 | 24.02029 | 7921 ft | 272 kts | 277° |
| 2026-05-04 13:53 | 38.08785 | 23.99669 | 8656 ft | 283 kts | 252° |
| 2026-05-04 13:54 | 38.07111 | 23.95075 | 10112 ft | 293 kts | 250° |
| 2026-05-04 13:54 | 38.06246 | 23.92712 | 10666 ft | 304 kts | 250° |
| 2026-05-04 13:54 | 38.05114 | 23.87351 | 11465 ft | 329 kts | 270° |
| 2026-05-04 13:55 | 38.05009 | 23.84437 | 12193 ft | 332 kts | 274° |
| 2026-05-04 13:55 | 38.05131 | 23.78543 | 13639 ft | 340 kts | 277° |
| 2026-05-04 13:55 | 38.05279 | 23.75531 | 14312 ft | 346 kts | 278° |
| 2026-05-04 13:56 | 38.05452 | 23.72507 | 15016 ft | 349 kts | 278° |
| 2026-05-04 13:56 | 38.05644 | 23.69409 | 15712 ft | 353 kts | 278° |
| 2026-05-04 13:56 | 38.06050 | 23.63174 | 17104 ft | 359 kts | 278° |
| 2026-05-04 13:57 | 38.06258 | 23.60043 | 17726 ft | 363 kts | 278° |
| 2026-05-04 13:57 | 38.06473 | 23.56818 | 18389 ft | 367 kts | 278° |
| 2026-05-04 13:58 | 38.07116 | 23.47097 | 20362 ft | 374 kts | 279° |
| 2026-05-04 13:58 | 38.07552 | 23.40485 | 21520 ft | 380 kts | 280° |
| 2026-05-04 13:58 | 38.07923 | 23.37205 | 22257 ft | 372 kts | 291° |
| 2026-05-04 13:59 | 38.08901 | 23.34215 | 22721 ft | 368 kts | 307° |
| 2026-05-04 13:59 | 38.10484 | 23.31762 | 23400 ft | 358 kts | 322° |
| 2026-05-04 13:59 | 38.14753 | 23.28467 | 24370 ft | 362 kts | 329° |
| 2026-05-04 14:00 | 38.16774 | 23.26622 | 25042 ft | 363 kts | 324° |
| 2026-05-04 14:00 | 38.20587 | 23.22357 | 25932 ft | 373 kts | 319° |
| 2026-05-04 14:00 | 38.22448 | 23.20041 | 26590 ft | 372 kts | 319° |
| 2026-05-04 14:01 | 38.24257 | 23.17724 | 27122 ft | 373 kts | 317° |
| 2026-05-04 14:01 | 38.26061 | 23.15359 | 27708 ft | 372 kts | 317° |
| 2026-05-04 14:01 | 38.29650 | 23.10570 | 28724 ft | 375 kts | 317° |
| 2026-05-04 14:02 | 38.31425 | 23.08179 | 29220 ft | 375 kts | 316° |
| 2026-05-04 14:02 | 38.33222 | 23.05747 | 29694 ft | 376 kts | 316° |
| 2026-05-04 14:02 | 38.35006 | 23.03327 | 29989 ft | 381 kts | 316° |
| 2026-05-04 14:02 | 38.36836 | 23.00840 | 30546 ft | 380 kts | 316° |
| 2026-05-04 14:03 | 38.38636 | 22.98389 | 30788 ft | 386 kts | 316° |
| 2026-05-04 14:03 | 38.40477 | 22.95880 | 31274 ft | 385 kts | 316° |
| 2026-05-04 14:03 | 38.42312 | 22.93376 | 31533 ft | 391 kts | 316° |
| 2026-05-04 14:03 | 38.44149 | 22.90866 | 31880 ft | 393 kts | 316° |
| 2026-05-04 14:04 | 38.47854 | 22.85796 | 32892 ft | 390 kts | 316° |
| 2026-05-04 14:04 | 38.49715 | 22.83246 | 33300 ft | 390 kts | 316° |
| 2026-05-04 14:04 | 38.51561 | 22.80717 | 33783 ft | 388 kts | 316° |
| 2026-05-04 14:05 | 38.55217 | 22.75697 | 34103 ft | 385 kts | 316° |
| 2026-05-04 14:05 | 38.57011 | 22.73229 | 34126 ft | 384 kts | 316° |
| 2026-05-04 14:06 | 38.60652 | 22.68222 | 34119 ft | 384 kts | 316° |
| 2026-05-04 14:06 | 38.64266 | 22.63241 | 34123 ft | 386 kts | 316° |
| 2026-05-04 14:07 | 38.67918 | 22.58200 | 34113 ft | 385 kts | 316° |
| 2026-05-04 14:07 | 38.71541 | 22.53191 | 34110 ft | 384 kts | 316° |
| 2026-05-04 14:08 | 38.75156 | 22.48185 | 34106 ft | 384 kts | 316° |
| 2026-05-04 14:08 | 38.78783 | 22.43155 | 34112 ft | 384 kts | 316° |
| 2026-05-04 14:09 | 38.84209 | 22.35615 | 34112 ft | 386 kts | 316° |
| 2026-05-04 14:10 | 38.89653 | 22.28027 | 34112 ft | 384 kts | 316° |
| 2026-05-04 14:10 | 38.93235 | 22.23028 | 34126 ft | 383 kts | 315° |
| 2026-05-04 14:11 | 38.96816 | 22.18021 | 34122 ft | 382 kts | 315° |
| 2026-05-04 14:11 | 39.02210 | 22.10463 | 34123 ft | 383 kts | 316° |
| 2026-05-04 14:12 | 39.05815 | 22.05402 | 34121 ft | 383 kts | 316° |
| 2026-05-04 14:13 | 39.11182 | 21.97853 | 34138 ft | 383 kts | 316° |
| 2026-05-04 14:13 | 39.14780 | 21.92781 | 34135 ft | 385 kts | 316° |
| 2026-05-04 14:14 | 39.18388 | 21.87689 | 34132 ft | 384 kts | 316° |
| 2026-05-04 14:14 | 39.23764 | 21.80080 | 34129 ft | 383 kts | 316° |
| 2026-05-04 14:15 | 39.30931 | 21.69912 | 34129 ft | 385 kts | 316° |
| 2026-05-04 14:16 | 39.36311 | 21.62256 | 34129 ft | 384 kts | 316° |
| 2026-05-04 14:17 | 39.41692 | 21.54582 | 34123 ft | 384 kts | 316° |
| 2026-05-04 14:18 | 39.47055 | 21.46911 | 34119 ft | 385 kts | 316° |
| 2026-05-04 14:19 | 39.54224 | 21.36628 | 34121 ft | 386 kts | 316° |
| 2026-05-04 14:19 | 39.57812 | 21.31471 | 34124 ft | 387 kts | 315° |
| 2026-05-04 14:20 | 39.61418 | 21.26277 | 34132 ft | 388 kts | 315° |
| 2026-05-04 14:20 | 39.65012 | 21.21093 | 34133 ft | 386 kts | 315° |
| 2026-05-04 14:21 | 39.70363 | 21.13357 | 34138 ft | 385 kts | 315° |
| 2026-05-04 14:21 | 39.73940 | 21.08176 | 34139 ft | 386 kts | 315° |
| 2026-05-04 14:22 | 39.77531 | 21.02965 | 34140 ft | 389 kts | 315° |
| 2026-05-04 14:22 | 39.81116 | 20.97754 | 34134 ft | 387 kts | 315° |
| 2026-05-04 14:23 | 39.86507 | 20.89899 | 34153 ft | 390 kts | 315° |
| 2026-05-04 14:24 | 39.89500 | 20.85531 | 34140 ft | 388 kts | 315° |
| 2026-05-04 14:24 | 39.93657 | 20.79455 | 34144 ft | 387 kts | 315° |
| 2026-05-04 14:25 | 39.97231 | 20.74219 | 34132 ft | 389 kts | 315° |
| 2026-05-04 14:25 | 40.02603 | 20.66334 | 34136 ft | 387 kts | 315° |
| 2026-05-04 14:26 | 40.06183 | 20.61115 | 34137 ft | 384 kts | 318° |
| 2026-05-04 14:26 | 40.10504 | 20.57152 | 34137 ft | 382 kts | 331° |
| 2026-05-04 14:27 | 40.15157 | 20.53726 | 34134 ft | 385 kts | 331° |
| 2026-05-04 14:27 | 40.19799 | 20.50313 | 34134 ft | 382 kts | 332° |
| 2026-05-04 14:28 | 40.24420 | 20.46917 | 34128 ft | 381 kts | 332° |
| 2026-05-04 14:28 | 40.29047 | 20.43515 | 34141 ft | 384 kts | 331° |
| 2026-05-04 14:29 | 40.38359 | 20.36652 | 34133 ft | 383 kts | 332° |
| 2026-05-04 14:30 | 40.42991 | 20.33231 | 34142 ft | 384 kts | 331° |
| 2026-05-04 14:31 | 40.49971 | 20.28066 | 34133 ft | 384 kts | 331° |
| 2026-05-04 14:32 | 40.59260 | 20.21172 | 34129 ft | 385 kts | 330° |
| 2026-05-04 14:32 | 40.63906 | 20.17716 | 34118 ft | 385 kts | 331° |
| 2026-05-04 14:33 | 40.68559 | 20.14249 | 34107 ft | 385 kts | 331° |
| 2026-05-04 14:33 | 40.73208 | 20.10780 | 34113 ft | 384 kts | 330° |
| 2026-05-04 14:34 | 40.77848 | 20.07311 | 34108 ft | 385 kts | 331° |
| 2026-05-04 14:34 | 40.82501 | 20.03827 | 34110 ft | 385 kts | 331° |
| 2026-05-04 14:35 | 40.87121 | 20.00363 | 34105 ft | 382 kts | 330° |
| 2026-05-04 14:35 | 40.91731 | 19.96898 | 34098 ft | 383 kts | 331° |
| 2026-05-04 14:36 | 40.96370 | 19.93409 | 34096 ft | 385 kts | 330° |
| 2026-05-04 14:36 | 41.01039 | 19.89889 | 34091 ft | 386 kts | 331° |
| 2026-05-04 14:37 | 41.05684 | 19.86384 | 34100 ft | 387 kts | 331° |
| 2026-05-04 14:37 | 41.10369 | 19.82841 | 34102 ft | 389 kts | 331° |
| 2026-05-04 14:38 | 41.15048 | 19.79297 | 34113 ft | 388 kts | 331° |
| 2026-05-04 14:38 | 41.19745 | 19.75735 | 34116 ft | 387 kts | 331° |
| 2026-05-04 14:39 | 41.24390 | 19.72205 | 34116 ft | 389 kts | 331° |
| 2026-05-04 14:39 | 41.29097 | 19.68622 | 34112 ft | 390 kts | 331° |
| 2026-05-04 14:40 | 41.36140 | 19.63250 | 34109 ft | 389 kts | 331° |
| 2026-05-04 14:40 | 41.40820 | 19.59673 | 34104 ft | 390 kts | 330° |
| 2026-05-04 14:41 | 41.45521 | 19.56072 | 34101 ft | 390 kts | 331° |
| 2026-05-04 14:42 | 41.54914 | 19.48864 | 34099 ft | 392 kts | 330° |
| 2026-05-04 14:42 | 41.59621 | 19.45240 | 34096 ft | 390 kts | 331° |
| 2026-05-04 14:43 | 41.64304 | 19.41631 | 34098 ft | 391 kts | 331° |
| 2026-05-04 14:43 | 41.69022 | 19.37988 | 34102 ft | 393 kts | 330° |
| 2026-05-04 14:44 | 41.73756 | 19.34327 | 34104 ft | 392 kts | 330° |
| 2026-05-04 14:44 | 41.78485 | 19.30702 | 34104 ft | 392 kts | 332° |
| 2026-05-04 14:45 | 41.83272 | 19.27252 | 34112 ft | 392 kts | 332° |
| 2026-05-04 14:45 | 41.88033 | 19.23807 | 34106 ft | 391 kts | 332° |
| 2026-05-04 14:46 | 41.92825 | 19.20335 | 34106 ft | 390 kts | 331° |
| 2026-05-04 14:46 | 41.97604 | 19.16863 | 34112 ft | 392 kts | 331° |
| 2026-05-04 14:47 | 42.02380 | 19.13388 | 34105 ft | 391 kts | 332° |
| 2026-05-04 14:47 | 42.07147 | 19.09914 | 34112 ft | 390 kts | 332° |
| 2026-05-04 14:48 | 42.11935 | 19.06419 | 34124 ft | 392 kts | 331° |
| 2026-05-04 14:48 | 42.16726 | 19.02916 | 34116 ft | 395 kts | 332° |
| 2026-05-04 14:49 | 42.21537 | 18.99391 | 34115 ft | 395 kts | 331° |
| 2026-05-04 14:49 | 42.26339 | 18.95867 | 34115 ft | 392 kts | 332° |
| 2026-05-04 14:50 | 42.31124 | 18.92349 | 34115 ft | 394 kts | 332° |
| 2026-05-04 14:50 | 42.35974 | 18.88778 | 34113 ft | 399 kts | 331° |
| 2026-05-04 14:51 | 42.40840 | 18.85188 | 34111 ft | 398 kts | 332° |
| 2026-05-04 14:51 | 42.45676 | 18.81614 | 34116 ft | 398 kts | 331° |
| 2026-05-04 14:52 | 42.50528 | 18.78021 | 34112 ft | 398 kts | 332° |
| 2026-05-04 14:52 | 42.55387 | 18.74417 | 34112 ft | 400 kts | 332° |
| 2026-05-04 14:53 | 42.60245 | 18.70809 | 34116 ft | 401 kts | 332° |
| 2026-05-04 14:53 | 42.65151 | 18.67157 | 34115 ft | 400 kts | 332° |
| 2026-05-04 14:54 | 42.69989 | 18.63549 | 34122 ft | 399 kts | 332° |
| 2026-05-04 14:54 | 42.74862 | 18.59909 | 34120 ft | 401 kts | 331° |
| 2026-05-04 14:55 | 42.78954 | 18.56848 | 34122 ft | 401 kts | 331° |
| 2026-05-04 14:55 | 42.84639 | 18.52585 | 34129 ft | 402 kts | 331° |
| 2026-05-04 14:56 | 42.89538 | 18.48905 | 34135 ft | 404 kts | 331° |
| 2026-05-04 14:56 | 42.94431 | 18.45223 | 34141 ft | 403 kts | 332° |
| 2026-05-04 14:57 | 42.99343 | 18.41521 | 34136 ft | 403 kts | 331° |
| 2026-05-04 14:57 | 43.04234 | 18.37826 | 34138 ft | 406 kts | 332° |
| 2026-05-04 14:58 | 43.09174 | 18.34089 | 34135 ft | 406 kts | 331° |
| 2026-05-04 14:58 | 43.13280 | 18.30977 | 34149 ft | 404 kts | 331° |
| 2026-05-04 14:59 | 43.19010 | 18.26626 | 34141 ft | 404 kts | 330° |
| 2026-05-04 15:00 | 43.26356 | 18.21034 | 34146 ft | 403 kts | 331° |
| 2026-05-04 15:00 | 43.31269 | 18.17285 | 34144 ft | 405 kts | 330° |
| 2026-05-04 15:01 | 43.38670 | 18.11625 | 34141 ft | 406 kts | 330° |
| 2026-05-04 15:01 | 43.43602 | 18.07843 | 34141 ft | 407 kts | 331° |
| 2026-05-04 15:02 | 43.48525 | 18.04063 | 34152 ft | 411 kts | 330° |
| 2026-05-04 15:02 | 43.53590 | 18.00167 | 34154 ft | 423 kts | 330° |
| 2026-05-04 15:03 | 43.58802 | 17.96148 | 34146 ft | 435 kts | 330° |
| 2026-05-04 15:03 | 43.64138 | 17.92027 | 34146 ft | 446 kts | 330° |
| 2026-05-04 15:04 | 43.69574 | 17.87819 | 34130 ft | 452 kts | 330° |
| 2026-05-04 15:04 | 43.75035 | 17.83582 | 34125 ft | 451 kts | 330° |
| 2026-05-04 15:05 | 43.80512 | 17.79325 | 34120 ft | 451 kts | 330° |
| 2026-05-04 15:05 | 43.85968 | 17.75074 | 34125 ft | 452 kts | 330° |
| 2026-05-04 15:06 | 43.91412 | 17.70823 | 34134 ft | 453 kts | 330° |
| 2026-05-04 15:07 | 43.99652 | 17.64373 | 34131 ft | 453 kts | 330° |
| 2026-05-04 15:07 | 44.05104 | 17.60093 | 34122 ft | 454 kts | 330° |
| 2026-05-04 15:08 | 44.10583 | 17.55783 | 34095 ft | 454 kts | 330° |
| 2026-05-04 15:08 | 44.16068 | 17.51460 | 34108 ft | 454 kts | 330° |
| 2026-05-04 15:09 | 44.21545 | 17.47134 | 34099 ft | 454 kts | 330° |
| 2026-05-04 15:09 | 44.27021 | 17.42797 | 34111 ft | 455 kts | 330° |
| 2026-05-04 15:10 | 44.35263 | 17.36254 | 34109 ft | 456 kts | 330° |
| 2026-05-04 15:11 | 44.43521 | 17.29676 | 34111 ft | 455 kts | 330° |
| 2026-05-04 15:11 | 44.48993 | 17.25307 | 34114 ft | 455 kts | 330° |
| 2026-05-04 15:12 | 44.54496 | 17.20902 | 34095 ft | 457 kts | 330° |
| 2026-05-04 15:12 | 44.60005 | 17.16483 | 34086 ft | 457 kts | 330° |
| 2026-05-04 15:13 | 44.65503 | 17.12064 | 34067 ft | 457 kts | 330° |
| 2026-05-04 15:13 | 44.71003 | 17.07632 | 34047 ft | 458 kts | 329° |
| 2026-05-04 15:14 | 44.76498 | 17.03194 | 34037 ft | 458 kts | 329° |
| 2026-05-04 15:14 | 44.82011 | 16.98733 | 34039 ft | 458 kts | 329° |
| 2026-05-04 15:15 | 44.87522 | 16.94263 | 34035 ft | 458 kts | 329° |
| 2026-05-04 15:15 | 44.93027 | 16.89788 | 34035 ft | 459 kts | 330° |
| 2026-05-04 15:16 | 45.01308 | 16.83038 | 34034 ft | 460 kts | 329° |
| 2026-05-04 15:17 | 45.09606 | 16.76251 | 34020 ft | 460 kts | 329° |
| 2026-05-04 15:17 | 45.17913 | 16.69441 | 34013 ft | 460 kts | 331° |
| 2026-05-04 15:18 | 45.23890 | 16.66343 | 34029 ft | 461 kts | 346° |
| 2026-05-04 15:19 | 45.33240 | 16.63208 | 34010 ft | 463 kts | 346° |
| 2026-05-04 15:19 | 45.42647 | 16.60042 | 34006 ft | 464 kts | 346° |
| 2026-05-04 15:20 | 45.48932 | 16.57922 | 34003 ft | 464 kts | 346° |
| 2026-05-04 15:20 | 45.55184 | 16.55809 | 34003 ft | 463 kts | 346° |
| 2026-05-04 15:21 | 45.61440 | 16.53690 | 33996 ft | 464 kts | 346° |
| 2026-05-04 15:22 | 45.70831 | 16.50499 | 33995 ft | 465 kts | 346° |
| 2026-05-04 15:22 | 45.80232 | 16.47295 | 33998 ft | 465 kts | 346° |
| 2026-05-04 15:23 | 45.86539 | 16.45138 | 33992 ft | 465 kts | 346° |
| 2026-05-04 15:23 | 45.92794 | 16.42994 | 33991 ft | 466 kts | 346° |
| 2026-05-04 15:24 | 46.05376 | 16.38668 | 33988 ft | 466 kts | 346° |
| 2026-05-04 15:25 | 46.11669 | 16.36497 | 33989 ft | 466 kts | 346° |
| 2026-05-04 15:26 | 46.21112 | 16.33228 | 33985 ft | 465 kts | 345° |
| 2026-05-04 15:26 | 46.30502 | 16.29967 | 33985 ft | 466 kts | 345° |
| 2026-05-04 15:27 | 46.39948 | 16.26699 | 33980 ft | 466 kts | 346° |
| 2026-05-04 15:28 | 46.49398 | 16.23520 | 33976 ft | 466 kts | 346° |
| 2026-05-04 15:29 | 46.58845 | 16.20329 | 33968 ft | 466 kts | 346° |
| 2026-05-04 15:30 | 46.80928 | 16.12823 | 33959 ft | 467 kts | 346° |
| 2026-05-04 15:31 | 46.90349 | 16.09601 | 33941 ft | 467 kts | 346° |
| 2026-05-04 15:32 | 47.06115 | 16.04184 | 33959 ft | 466 kts | 346° |
| 2026-05-04 15:34 | 47.21844 | 15.98747 | 33961 ft | 466 kts | 345° |
| 2026-05-04 15:34 | 47.31334 | 15.95451 | 33972 ft | 468 kts | 345° |
| 2026-05-04 15:35 | 47.40804 | 15.92149 | 33983 ft | 467 kts | 345° |
| 2026-05-04 15:36 | 47.50253 | 15.88842 | 34001 ft | 467 kts | 345° |
| 2026-05-04 15:36 | 47.56533 | 15.86638 | 33986 ft | 467 kts | 345° |
| 2026-05-04 15:37 | 47.62839 | 15.84419 | 33992 ft | 466 kts | 345° |
| 2026-05-04 15:37 | 47.69118 | 15.82204 | 33978 ft | 468 kts | 345° |
| 2026-05-04 15:38 | 47.75468 | 15.79958 | 33976 ft | 468 kts | 345° |
| 2026-05-04 15:38 | 47.81770 | 15.77724 | 33949 ft | 468 kts | 345° |
| 2026-05-04 15:39 | 47.88054 | 15.75490 | 33940 ft | 467 kts | 345° |
| 2026-05-04 15:40 | 47.97538 | 15.72109 | 33929 ft | 468 kts | 345° |
| 2026-05-04 15:40 | 48.03857 | 15.69849 | 33927 ft | 468 kts | 345° |
| 2026-05-04 15:41 | 48.10195 | 15.67576 | 33923 ft | 470 kts | 345° |
| 2026-05-04 15:41 | 48.16525 | 15.65301 | 33928 ft | 469 kts | 345° |
| 2026-05-04 15:42 | 48.22847 | 15.63023 | 33934 ft | 469 kts | 345° |
| 2026-05-04 15:42 | 48.29144 | 15.60748 | 33935 ft | 469 kts | 345° |
| 2026-05-04 15:43 | 48.34403 | 15.58843 | 33936 ft | 469 kts | 345° |
| 2026-05-04 15:43 | 48.41822 | 15.56150 | 33941 ft | 470 kts | 345° |
| 2026-05-04 15:44 | 48.48186 | 15.53832 | 33944 ft | 472 kts | 345° |
| 2026-05-04 15:44 | 48.54544 | 15.51511 | 33945 ft | 471 kts | 345° |
| 2026-05-04 15:45 | 48.59812 | 15.49584 | 33947 ft | 471 kts | 345° |
| 2026-05-04 15:45 | 48.67210 | 15.46870 | 33946 ft | 472 kts | 344° |
| 2026-05-04 15:46 | 48.73612 | 15.44515 | 33946 ft | 472 kts | 344° |
| 2026-05-04 15:46 | 48.79964 | 15.42173 | 33942 ft | 471 kts | 344° |
| 2026-05-04 15:47 | 48.86303 | 15.39828 | 33939 ft | 472 kts | 344° |
| 2026-05-04 15:47 | 48.92687 | 15.37636 | 33941 ft | 473 kts | 346° |
| 2026-05-04 15:48 | 48.99106 | 15.35597 | 33941 ft | 473 kts | 346° |
| 2026-05-04 15:48 | 49.08746 | 15.32525 | 33949 ft | 474 kts | 345° |
| 2026-05-04 15:49 | 49.15198 | 15.30460 | 33947 ft | 474 kts | 345° |
| 2026-05-04 15:49 | 49.21613 | 15.28401 | 33951 ft | 473 kts | 345° |
| 2026-05-04 15:50 | 49.28021 | 15.26339 | 33954 ft | 474 kts | 345° |
| 2026-05-04 15:50 | 49.33382 | 15.24610 | 33952 ft | 475 kts | 345° |
| 2026-05-04 15:51 | 49.39805 | 15.22533 | 33949 ft | 474 kts | 345° |
| 2026-05-04 15:51 | 49.46209 | 15.20458 | 33935 ft | 458 kts | 345° |
| 2026-05-04 15:52 | 49.50231 | 15.19154 | 33934 ft | 438 kts | 345° |
| 2026-05-04 15:52 | 49.52232 | 15.18503 | 33933 ft | 430 kts | 345° |
| 2026-05-04 15:52 | 49.57993 | 15.16622 | 33952 ft | 429 kts | 345° |
| 2026-05-04 15:53 | 49.64877 | 15.14368 | 33948 ft | 440 kts | 345° |
| 2026-05-04 15:53 | 49.70869 | 15.12407 | 33943 ft | 439 kts | 345° |
| 2026-05-04 15:54 | 49.76808 | 15.10456 | 33943 ft | 438 kts | 345° |
| 2026-05-04 15:54 | 49.82758 | 15.08496 | 33941 ft | 439 kts | 345° |
| 2026-05-04 15:55 | 49.88715 | 15.06529 | 33937 ft | 441 kts | 345° |
| 2026-05-04 15:55 | 49.94707 | 15.04547 | 33932 ft | 439 kts | 344° |
| 2026-05-04 15:56 | 50.00645 | 15.02577 | 33933 ft | 440 kts | 344° |
| 2026-05-04 15:56 | 50.06644 | 15.00581 | 33930 ft | 442 kts | 344° |
| 2026-05-04 15:57 | 50.12611 | 14.98591 | 33939 ft | 442 kts | 344° |
| 2026-05-04 15:57 | 50.17619 | 14.96917 | 33937 ft | 442 kts | 344° |
| 2026-05-04 15:58 | 50.24615 | 14.94572 | 33946 ft | 442 kts | 344° |
| 2026-05-04 15:58 | 50.29622 | 14.92890 | 33947 ft | 442 kts | 344° |
| 2026-05-04 15:59 | 50.35616 | 14.90871 | 33946 ft | 442 kts | 344° |
| 2026-05-04 15:59 | 50.42599 | 14.88513 | 33949 ft | 442 kts | 344° |
| 2026-05-04 16:00 | 50.48580 | 14.86482 | 33947 ft | 441 kts | 343° |
| 2026-05-04 16:00 | 50.53538 | 14.84682 | 33953 ft | 442 kts | 343° |
| 2026-05-04 16:01 | 50.60524 | 14.82137 | 33953 ft | 443 kts | 343° |
| 2026-05-04 16:01 | 50.66497 | 14.79954 | 33956 ft | 442 kts | 343° |
| 2026-05-04 16:02 | 50.71502 | 14.78122 | 33952 ft | 443 kts | 343° |
| 2026-05-04 16:03 | 50.81470 | 14.74458 | 33179 ft | 447 kts | 343° |
| 2026-05-04 16:03 | 50.84408 | 14.73311 | 32988 ft | 427 kts | 339° |
| 2026-05-04 16:03 | 50.87117 | 14.71659 | 32243 ft | 417 kts | 329° |
| 2026-05-04 16:03 | 50.88796 | 14.70175 | 31419 ft | 417 kts | 322° |
| 2026-05-04 16:04 | 50.91707 | 14.66336 | 30243 ft | 405 kts | 310° |
| 2026-05-04 16:04 | 50.94785 | 14.59194 | 28557 ft | 390 kts | 293° |
| 2026-05-04 16:04 | 50.95525 | 14.56626 | 27997 ft | 387 kts | 291° |
| 2026-05-04 16:05 | 50.96511 | 14.52667 | 27177 ft | 382 kts | 288° |
| 2026-05-04 16:05 | 50.97371 | 14.48771 | 26372 ft | 378 kts | 287° |
| 2026-05-04 16:05 | 50.99171 | 14.39631 | 24480 ft | 369 kts | 285° |
| 2026-05-04 16:06 | 50.99644 | 14.37081 | 23960 ft | 367 kts | 285° |
| 2026-05-04 16:06 | 51.01703 | 14.25630 | 21668 ft | 356 kts | 283° |
| 2026-05-04 16:07 | 51.02363 | 14.21892 | 20953 ft | 352 kts | 283° |
| 2026-05-04 16:07 | 51.04498 | 14.09696 | 18522 ft | 341 kts | 283° |
| 2026-05-04 16:08 | 51.04917 | 14.07291 | 18047 ft | 339 kts | 283° |
| 2026-05-04 16:08 | 51.06955 | 13.95538 | 15743 ft | 328 kts | 283° |
| 2026-05-04 16:09 | 51.08143 | 13.88650 | 14405 ft | 321 kts | 283° |
| 2026-05-04 16:09 | 51.09114 | 13.82997 | 13728 ft | 316 kts | 283° |
| 2026-05-04 16:10 | 51.10451 | 13.75179 | 12826 ft | 316 kts | 283° |
| 2026-05-04 16:11 | 51.12139 | 13.65270 | 11700 ft | 306 kts | 283° |
| 2026-05-04 16:11 | 51.12508 | 13.63091 | 11478 ft | 305 kts | 283° |
| 2026-05-04 16:12 | 51.14340 | 13.52256 | 10264 ft | 303 kts | 284° |
| 2026-05-04 16:12 | 51.15866 | 13.43188 | 9994 ft | 270 kts | 283° |
| 2026-05-04 16:13 | 51.16835 | 13.37393 | 9485 ft | 269 kts | 283° |
| 2026-05-04 16:13 | 51.18087 | 13.31879 | 8933 ft | 267 kts | 296° |
| 2026-05-04 16:14 | 51.19980 | 13.26170 | 8468 ft | 328 kts | 296° |
| 2026-05-04 16:14 | 51.21867 | 13.20709 | 7671 ft | 341 kts | 303° |
| 2026-05-04 16:15 | 51.27401 | 13.11970 | 6039 ft | 334 kts | 315° |
| 2026-05-04 16:16 | 51.30166 | 13.07756 | 5220 ft | 331 kts | 315° |
| 2026-05-04 16:16 | 51.35026 | 13.00169 | 4136 ft | 320 kts | 315° |
| 2026-05-04 16:17 | 51.38129 | 12.95146 | 4058 ft | 315 kts | 308° |
| 2026-05-04 16:18 | 51.41031 | 12.85914 | 4052 ft | 308 kts | 295° |
| 2026-05-04 16:18 | 51.41922 | 12.82872 | 4042 ft | 292 kts | 295° |
| 2026-05-04 16:19 | 51.43444 | 12.74395 | 4068 ft | 248 kts | 267° |
| 2026-05-04 16:19 | 51.43282 | 12.69131 | 4045 ft | 224 kts | 268° |
| 2026-05-04 16:20 | 51.43004 | 12.61577 | 4044 ft | 183 kts | 267° |
| 2026-05-04 16:20 | 51.42849 | 12.57751 | 4070 ft | 176 kts | 266° |
| 2026-05-04 16:21 | 51.42615 | 12.52261 | 3672 ft | 186 kts | 267° |
| 2026-05-04 16:22 | 51.42436 | 12.48204 | 3176 ft | 181 kts | 267° |
| 2026-05-04 16:22 | 51.42173 | 12.42369 | 2466 ft | 159 kts | 268° |
| 2026-05-04 16:23 | 51.41909 | 12.36660 | 1874 ft | 162 kts | 269° |
| 2026-05-04 16:24 | 51.41610 | 12.30232 | 1029 ft | 155 kts | 267° |
| 2026-05-04 16:25 | 51.41450 | 12.26780 | 645 ft | 156 kts | 266° |
| 2026-05-04 16:26 | 51.41223 | 12.21983 | 451 ft | 25 kts | 260° |
| 2026-05-04 16:26 | 51.41051 | 12.21748 | 450 ft | 3 kts | 96° |
| 2026-05-04 16:27 | 51.41055 | 12.21858 | 452 ft | 6 kts | 83° |
| 2026-05-04 16:28 | 51.41069 | 12.22145 | 459 ft | 15 kts | 86° |
| 2026-05-04 16:28 | 51.41108 | 12.22928 | 470 ft | 25 kts | 85° |
| 2026-05-04 16:29 | 51.41149 | 12.23988 | 456 ft | 19 kts | 83° |
| 2026-05-04 16:30 | 51.41126 | 12.24586 | 450 ft | 20 kts | 149° |
| 2026-05-04 16:31 | 51.40961 | 12.24701 | 445 ft | 4 kts | 70° |
| 2026-05-04 16:31 | 51.40983 | 12.24840 | 446 ft | 0 kts | 85° |